createdAt,value
2022-11-17T00:01:14.798Z,0.32
2022-11-17T00:03:41.132Z,0.63
2022-11-17T00:06:07.539Z,0.60
2022-11-17T00:08:33.952Z,0.50
2022-11-17T00:11:00.989Z,0.50
2022-11-17T00:13:46.671Z,0.65
2022-11-17T00:16:13.830Z,0.80
2022-11-17T00:18:59.107Z,0.40
2022-11-17T00:21:27.123Z,0.55
2022-11-17T00:23:53.676Z,0.40
2022-11-17T00:26:21.357Z,0.50
2022-11-17T00:28:48.131Z,0.32
2022-11-17T00:31:33.234Z,0.52
2022-11-17T00:34:05.432Z,0.30
2022-11-17T00:36:37.261Z,0.40
2022-11-17T00:39:03.727Z,0.40
2022-11-17T00:41:30.140Z,0.30
2022-11-17T00:43:56.833Z,0.60
2022-11-17T00:46:23.472Z,0.50
2022-11-17T00:48:49.854Z,0.60
2022-11-17T00:51:16.193Z,0.50
2022-11-17T00:53:42.667Z,0.57
2022-11-17T00:56:09.004Z,0.32
2022-11-17T00:58:37.574Z,0.40
2022-11-17T01:01:04.201Z,0.38
2022-11-17T01:03:30.691Z,0.40
2022-11-17T01:06:02.741Z,0.50
2022-11-17T01:08:29.070Z,0.60
2022-11-17T01:10:55.382Z,0.60
2022-11-17T01:13:21.748Z,0.50
2022-11-17T01:15:48.095Z,0.50
2022-11-17T01:18:14.441Z,0.40
2022-11-17T01:20:40.909Z,0.60
2022-11-17T01:23:07.222Z,0.75
2022-11-17T01:25:33.562Z,0.40
2022-11-17T01:27:59.982Z,0.47
2022-11-17T01:30:26.310Z,0.60
2022-11-17T01:32:52.621Z,0.40
2022-11-17T01:35:18.992Z,0.52
2022-11-17T01:37:45.382Z,0.40
2022-11-17T01:40:12.204Z,0.40
2022-11-17T01:42:38.592Z,0.50
2022-11-17T01:45:16.754Z,0.40
2022-11-17T01:47:47.652Z,0.77
2022-11-17T01:50:26.055Z,0.60
2022-11-17T01:52:53.765Z,0.60
2022-11-17T01:55:20.688Z,0.40
2022-11-17T01:57:50.378Z,0.43
2022-11-17T02:00:17.026Z,0.40
2022-11-17T02:02:43.692Z,0.32
2022-11-17T02:05:15.108Z,0.40
2022-11-17T02:07:42.573Z,0.60
2022-11-17T02:10:09.027Z,0.50
2022-11-17T02:12:36.204Z,0.47
2022-11-17T02:15:03.354Z,0.40
2022-11-17T02:17:32.540Z,0.57
2022-11-17T02:20:17.553Z,0.47
2022-11-17T02:23:07.119Z,0.38
2022-11-17T02:25:45.399Z,0.40
2022-11-17T02:28:15.184Z,0.70
2022-11-17T02:30:46.887Z,0.60
2022-11-17T02:33:18.520Z,0.40
2022-11-17T02:35:47.944Z,0.40
2022-11-17T02:38:14.241Z,0.60
2022-11-17T02:40:43.703Z,0.60
2022-11-17T02:43:31.849Z,0.45
2022-11-17T02:46:02.943Z,0.68
2022-11-17T02:48:40.307Z,0.60
2022-11-17T02:51:08.954Z,0.60
2022-11-17T02:53:35.832Z,0.60
2022-11-17T02:56:02.641Z,0.50
2022-11-17T02:58:29.083Z,0.43
2022-11-17T03:01:09.827Z,0.60
2022-11-17T03:03:42.016Z,0.50
2022-11-17T03:06:19.292Z,0.50
2022-11-17T03:08:57.637Z,0.60
2022-11-17T03:11:29.525Z,0.77
2022-11-17T03:13:55.855Z,1.00
2022-11-17T03:16:28.254Z,0.80
2022-11-17T03:19:21.092Z,0.60
2022-11-17T03:21:53.197Z,0.55
2022-11-17T03:24:33.881Z,0.88
2022-11-17T03:27:08.381Z,0.50
2022-11-17T03:29:36.696Z,0.40
2022-11-17T03:32:04.741Z,0.40
2022-11-17T03:34:33.723Z,0.68
2022-11-17T03:37:02.357Z,0.40
2022-11-17T03:39:31.906Z,0.57
2022-11-17T03:44:26.553Z,0.52
2022-11-17T03:46:54.787Z,0.35
2022-11-17T03:49:33.732Z,0.50
2022-11-17T03:52:00.299Z,0.57
2022-11-17T03:54:26.899Z,0.60
2022-11-17T03:56:57.606Z,0.63
2022-11-17T03:59:23.912Z,0.40
2022-11-17T04:01:50.657Z,0.50
2022-11-17T04:04:17.793Z,0.50
2022-11-17T04:06:44.162Z,0.40
2022-11-17T04:09:10.516Z,0.57
2022-11-17T04:11:55.727Z,0.50
2022-11-17T04:14:40.486Z,0.40
2022-11-17T04:17:07.010Z,0.40
2022-11-17T04:19:33.484Z,0.60
2022-11-17T04:21:59.892Z,0.38
2022-11-17T04:24:26.255Z,0.30
2022-11-17T04:27:11.080Z,0.40
2022-11-17T04:29:37.425Z,0.43
2022-11-17T04:32:03.876Z,0.50
2022-11-17T04:34:30.213Z,0.40
2022-11-17T04:36:56.604Z,0.47
2022-11-17T04:39:22.974Z,0.60
2022-11-17T04:41:54.764Z,0.47
2022-11-17T04:44:23.177Z,0.43
2022-11-17T04:46:50.019Z,0.30
2022-11-17T04:49:17.080Z,0.52
2022-11-17T04:51:43.527Z,0.55
2022-11-17T04:54:11.034Z,0.40
2022-11-17T04:56:37.729Z,0.43
2022-11-17T04:59:04.316Z,0.35
2022-11-17T05:01:30.712Z,0.40
2022-11-17T05:03:58.152Z,0.63
2022-11-17T05:06:32.135Z,0.50
2022-11-17T05:08:59.007Z,0.70
2022-11-17T05:11:45.138Z,0.52
2022-11-17T05:14:12.050Z,0.60
2022-11-17T05:16:56.780Z,0.50
2022-11-17T05:19:24.470Z,0.50
2022-11-17T05:21:50.931Z,0.60
2022-11-17T05:24:17.976Z,0.50
2022-11-17T05:26:44.978Z,0.70
2022-11-17T05:29:12.269Z,0.63
2022-11-17T05:31:38.659Z,0.80
2022-11-17T05:34:05.995Z,0.40
2022-11-17T05:36:36.266Z,0.40
2022-11-17T05:39:08.349Z,0.55
2022-11-17T05:41:34.979Z,0.50
2022-11-17T05:44:01.903Z,0.47
2022-11-17T05:46:28.240Z,0.50
2022-11-17T05:48:54.664Z,0.57
2022-11-17T05:51:22.568Z,0.60
2022-11-17T05:53:49.234Z,0.60
2022-11-17T05:56:15.737Z,0.85
2022-11-17T05:58:43.569Z,0.47
2022-11-17T06:01:11.621Z,0.75
2022-11-17T06:03:39.682Z,1.13
2022-11-17T06:06:06.480Z,0.93
2022-11-17T06:08:32.856Z,0.63
2022-11-17T06:10:59.167Z,0.70
2022-11-17T06:13:28.961Z,0.70
2022-11-17T06:15:57.292Z,0.60
2022-11-17T06:18:25.295Z,0.77
2022-11-17T06:20:53.582Z,0.68
2022-11-17T06:23:21.716Z,0.68
2022-11-17T06:25:48.436Z,0.63
2022-11-17T06:28:17.487Z,0.60
2022-11-17T06:30:44.352Z,0.47
2022-11-17T06:33:13.009Z,0.88
2022-11-17T06:35:40.341Z,0.57
2022-11-17T06:38:06.807Z,0.80
2022-11-17T06:40:33.217Z,0.75
2022-11-17T06:43:09.583Z,0.63
2022-11-17T06:45:37.057Z,0.85
2022-11-17T06:48:04.272Z,0.60
2022-11-17T06:50:30.663Z,0.63
2022-11-17T06:52:58.055Z,0.70
2022-11-17T06:55:25.085Z,0.63
2022-11-17T06:57:53.669Z,0.60
2022-11-17T07:00:20.342Z,0.50
2022-11-17T07:02:46.810Z,0.80
2022-11-17T07:05:16.041Z,0.80
2022-11-17T07:07:42.390Z,0.60
2022-11-17T07:10:09.075Z,0.68
2022-11-17T07:12:35.624Z,0.50
2022-11-17T07:15:02.582Z,0.80
2022-11-17T07:17:29.630Z,0.90
2022-11-17T07:19:56.785Z,1.00
2022-11-17T07:22:23.225Z,0.75
2022-11-17T07:24:49.776Z,0.70
2022-11-17T07:27:16.228Z,0.80
2022-11-17T07:29:42.637Z,0.60
2022-11-17T07:32:10.875Z,0.80
2022-11-17T07:34:37.305Z,0.60
2022-11-17T07:37:03.817Z,0.60
2022-11-17T07:39:30.297Z,0.90
2022-11-17T07:41:56.742Z,0.68
2022-11-17T07:44:23.149Z,0.80
2022-11-17T07:46:49.753Z,0.80
2022-11-17T07:49:16.134Z,0.70
2022-11-17T07:51:42.581Z,0.85
2022-11-17T07:54:12.073Z,0.88
2022-11-17T07:59:04.835Z,0.60
2022-11-17T08:01:31.369Z,0.60
2022-11-17T08:03:58.555Z,0.80
2022-11-17T08:06:25.181Z,0.68
2022-11-17T08:08:51.817Z,0.90
2022-11-17T08:11:19.432Z,0.80
2022-11-17T08:13:45.883Z,0.60
2022-11-17T08:16:12.623Z,0.77
2022-11-17T08:18:39.690Z,0.70
2022-11-17T08:21:06.546Z,0.55
2022-11-17T08:23:33.058Z,0.82
2022-11-17T08:26:00.291Z,1.23
2022-11-17T08:28:26.767Z,0.90
2022-11-17T08:30:53.365Z,1.00
2022-11-17T08:33:19.812Z,0.80
2022-11-17T08:35:46.305Z,0.70
2022-11-17T08:38:15.294Z,1.00
2022-11-17T08:40:42.260Z,0.90
2022-11-17T08:43:08.820Z,0.70
2022-11-17T08:45:35.201Z,0.75
2022-11-17T08:48:04.106Z,0.70
2022-11-17T08:50:30.838Z,0.77
2022-11-17T08:52:57.312Z,0.70
2022-11-17T08:55:23.948Z,1.67
2022-11-17T08:57:50.427Z,0.90
2022-11-17T09:00:19.809Z,0.65
2022-11-17T09:02:46.280Z,0.77
2022-11-17T09:05:12.670Z,0.82
2022-11-17T09:07:39.164Z,0.70
2022-11-17T09:10:06.102Z,0.45
2022-11-17T09:12:35.519Z,0.82
2022-11-17T09:15:01.900Z,1.00
2022-11-17T09:17:28.332Z,0.70
2022-11-17T09:19:54.679Z,0.65
2022-11-17T09:22:21.242Z,0.70
2022-11-17T09:24:47.686Z,0.70
2022-11-17T09:27:14.160Z,0.60
2022-11-17T09:29:40.637Z,0.73
2022-11-17T09:32:07.025Z,0.60
2022-11-17T09:34:33.483Z,0.70
2022-11-17T09:36:59.962Z,0.52
2022-11-17T09:39:26.313Z,0.80
2022-11-17T09:41:54.150Z,0.80
2022-11-17T09:44:39.770Z,0.57
2022-11-17T09:47:06.422Z,0.73
2022-11-17T09:49:41.551Z,1.02
2022-11-17T09:52:23.945Z,0.93
2022-11-17T09:54:58.030Z,0.70
2022-11-17T09:57:33.518Z,0.80
2022-11-17T10:00:02.630Z,0.90
2022-11-17T10:02:29.257Z,0.85
2022-11-17T10:04:56.181Z,0.60
2022-11-17T10:07:22.845Z,0.70
2022-11-17T10:09:49.832Z,0.90
2022-11-17T10:12:17.945Z,1.13
2022-11-17T10:14:45.692Z,0.88
2022-11-17T10:17:13.686Z,0.68
2022-11-17T10:19:40.684Z,0.60
2022-11-17T10:22:07.213Z,0.70
2022-11-17T10:24:48.132Z,0.77
2022-11-17T10:27:22.482Z,0.90
2022-11-17T10:29:59.369Z,0.70
2022-11-17T10:32:26.430Z,0.82
2022-11-17T10:34:54.196Z,0.80
2022-11-17T10:37:20.632Z,0.70
2022-11-17T10:39:47.123Z,1.17
2022-11-17T10:42:22.628Z,0.65
2022-11-17T10:44:53.344Z,0.77
2022-11-17T10:47:35.575Z,0.70
2022-11-17T10:50:20.811Z,0.80
2022-11-17T10:52:47.973Z,0.90
2022-11-17T10:55:17.360Z,0.80
2022-11-17T10:57:46.296Z,0.68
2022-11-17T11:00:23.132Z,0.82
2022-11-17T11:02:49.575Z,0.70
2022-11-17T11:05:21.621Z,0.70
2022-11-17T11:07:48.299Z,0.70
2022-11-17T11:10:27.882Z,0.80
2022-11-17T11:12:59.904Z,0.65
2022-11-17T11:15:30.019Z,0.95
2022-11-17T11:17:57.610Z,0.60
2022-11-17T11:20:53.381Z,0.73
2022-11-17T11:23:26.098Z,1.02
2022-11-17T11:25:57.236Z,0.80
2022-11-17T11:28:46.361Z,0.70
2022-11-17T11:31:18.549Z,0.75
2022-11-17T11:36:15.058Z,1.10
2022-11-17T11:38:47.718Z,1.00
2022-11-17T11:41:21.133Z,0.80
2022-11-17T11:44:02.999Z,0.82
2022-11-17T11:46:32.176Z,0.70
2022-11-17T11:49:12.089Z,1.25
2022-11-17T11:51:39.562Z,0.93
2022-11-17T11:54:10.162Z,0.70
2022-11-17T11:56:39.053Z,0.65
2022-11-17T11:59:06.910Z,0.90
2022-11-17T12:01:45.632Z,0.90
2022-11-17T12:04:17.796Z,0.80
2022-11-17T12:06:54.089Z,0.90
2022-11-17T12:09:28.481Z,0.80
2022-11-17T12:12:01.484Z,1.08
2022-11-17T12:14:32.252Z,0.90
2022-11-17T12:17:07.946Z,0.90
2022-11-17T12:19:59.585Z,0.82
2022-11-17T12:22:46.255Z,1.00
2022-11-17T12:25:15.781Z,0.77
2022-11-17T12:30:27.812Z,0.70
2022-11-17T12:32:54.689Z,0.98
2022-11-17T12:35:27.140Z,0.68
2022-11-17T12:38:23.176Z,0.95
2022-11-17T12:40:54.022Z,0.95
2022-11-17T12:43:20.399Z,0.90
2022-11-17T12:45:56.041Z,0.80
2022-11-17T12:48:37.770Z,0.80
2022-11-17T12:51:06.886Z,0.70
2022-11-17T12:53:41.262Z,0.90
2022-11-17T12:56:07.839Z,0.98
2022-11-17T12:58:34.371Z,0.75
2022-11-17T13:01:03.609Z,0.80
2022-11-17T13:03:33.063Z,0.82
2022-11-17T13:09:07.113Z,1.05
2022-11-17T13:11:33.707Z,0.80
2022-11-17T13:14:09.569Z,0.90
2022-11-17T13:16:37.512Z,1.08
2022-11-17T13:19:04.304Z,0.70
2022-11-17T13:21:31.894Z,1.00
2022-11-17T13:23:59.126Z,1.15
2022-11-17T13:26:26.926Z,0.90
2022-11-17T13:29:15.589Z,1.20
2022-11-17T13:31:41.990Z,1.25
2022-11-17T13:34:19.200Z,1.05
2022-11-17T13:36:59.278Z,1.15
2022-11-17T13:39:27.924Z,0.95
2022-11-17T13:41:54.719Z,0.90
2022-11-17T13:44:23.226Z,1.15
2022-11-17T13:46:49.954Z,1.23
2022-11-17T13:49:48.669Z,1.52
2022-11-17T13:52:34.603Z,1.10
2022-11-17T13:55:08.289Z,1.20
2022-11-17T13:57:35.112Z,1.15
2022-11-17T14:00:03.749Z,1.20
2022-11-17T14:02:30.145Z,1.23
2022-11-17T14:05:16.851Z,1.40
2022-11-17T14:07:43.668Z,1.17
2022-11-17T14:10:22.334Z,1.30
2022-11-17T14:12:49.688Z,1.20
2022-11-17T14:15:26.566Z,1.30
2022-11-17T14:17:53.995Z,1.42
2022-11-17T14:20:31.082Z,1.40
2022-11-17T14:23:05.958Z,1.38
2022-11-17T14:25:37.631Z,1.20
2022-11-17T14:28:04.150Z,1.38
2022-11-17T14:30:30.588Z,1.30
2022-11-17T14:33:03.629Z,1.10
2022-11-17T14:35:33.067Z,1.27
2022-11-17T14:38:02.473Z,1.20
2022-11-17T14:40:28.866Z,1.35
2022-11-17T14:42:55.444Z,1.33
2022-11-17T14:45:21.923Z,1.20
2022-11-17T14:47:48.396Z,1.52
2022-11-17T14:50:18.615Z,1.20
2022-11-17T14:52:45.313Z,1.27
2022-11-17T14:55:13.123Z,1.63
2022-11-17T14:57:39.933Z,1.38
2022-11-17T15:00:07.814Z,1.20
2022-11-17T15:02:36.343Z,1.48
2022-11-17T15:05:03.129Z,1.63
2022-11-17T15:07:30.123Z,1.33
2022-11-17T15:09:57.249Z,1.40
2022-11-17T15:12:23.600Z,1.50
2022-11-17T15:14:50.124Z,1.58
2022-11-17T15:17:17.019Z,1.20
2022-11-17T15:19:44.051Z,1.48
2022-11-17T15:22:10.540Z,1.50
2022-11-17T15:24:36.891Z,1.33
2022-11-17T15:27:03.334Z,1.23
2022-11-17T15:29:29.710Z,1.40
2022-11-17T15:31:56.063Z,1.10
2022-11-17T15:34:22.516Z,1.02
2022-11-17T15:36:49.057Z,1.20
2022-11-17T15:39:15.815Z,1.58
2022-11-17T15:41:43.195Z,1.60
2022-11-17T15:44:09.927Z,1.20
2022-11-17T15:46:36.343Z,1.20
2022-11-17T15:49:02.762Z,1.52
2022-11-17T15:51:29.262Z,1.17
2022-11-17T15:53:56.965Z,1.20
2022-11-17T15:56:25.113Z,1.20
2022-11-17T15:58:55.493Z,0.77
2022-11-17T16:01:28.079Z,1.30
2022-11-17T16:04:15.591Z,1.20
2022-11-17T16:06:42.727Z,1.10
2022-11-17T16:09:09.748Z,1.35
2022-11-17T16:11:36.662Z,1.42
2022-11-17T16:14:03.275Z,1.13
2022-11-17T16:16:31.902Z,1.45
2022-11-17T16:18:58.364Z,1.23
2022-11-17T16:21:25.065Z,1.23
2022-11-17T16:23:54.625Z,1.50
2022-11-17T16:28:47.816Z,1.30
2022-11-17T16:31:21.810Z,1.15
2022-11-17T16:33:49.682Z,1.17
2022-11-17T16:36:16.776Z,1.40
2022-11-17T16:38:59.889Z,1.33
2022-11-17T16:41:28.352Z,1.50
2022-11-17T16:43:55.218Z,1.50
2022-11-17T16:46:22.906Z,1.25
2022-11-17T16:48:49.645Z,1.20
2022-11-17T16:51:19.470Z,1.20
2022-11-17T16:53:48.977Z,1.40
2022-11-17T16:58:42.090Z,1.20
2022-11-17T17:01:12.299Z,1.27
2022-11-17T17:03:39.305Z,1.38
2022-11-17T17:06:06.306Z,1.30
2022-11-17T17:08:32.974Z,1.45
2022-11-17T17:11:03.409Z,1.50
2022-11-17T17:13:29.951Z,1.30
2022-11-17T17:15:56.455Z,1.27
2022-11-17T17:18:22.995Z,1.80
2022-11-17T17:20:50.474Z,1.63
2022-11-17T17:23:16.890Z,1.58
2022-11-17T17:25:43.357Z,1.77
2022-11-17T17:28:09.858Z,1.58
2022-11-17T17:30:36.406Z,1.33
2022-11-17T17:33:02.847Z,1.33
2022-11-17T17:35:29.295Z,1.40
2022-11-17T17:37:55.655Z,1.17
2022-11-17T17:40:22.283Z,1.38
2022-11-17T17:42:49.045Z,1.50
2022-11-17T17:45:15.505Z,1.52
2022-11-17T17:47:42.121Z,1.13
2022-11-17T17:50:08.994Z,1.05
2022-11-17T17:52:35.416Z,1.30
2022-11-17T17:55:01.813Z,1.15
2022-11-17T17:57:32.753Z,1.75
2022-11-17T18:00:00.397Z,1.23
2022-11-17T18:02:26.825Z,1.33
2022-11-17T18:04:53.272Z,1.38
2022-11-17T18:07:19.761Z,1.20
2022-11-17T18:09:46.290Z,1.30
2022-11-17T18:12:13.117Z,1.38
2022-11-17T18:14:39.451Z,1.40
2022-11-17T18:17:05.863Z,1.40
2022-11-17T18:19:33.339Z,1.40
2022-11-17T18:22:00.036Z,1.10
2022-11-17T18:24:26.381Z,1.10
2022-11-17T18:26:52.864Z,1.23
2022-11-17T18:29:19.743Z,1.23
2022-11-17T18:31:47.455Z,1.48
2022-11-17T18:34:15.198Z,1.70
2022-11-17T18:36:41.612Z,0.93
2022-11-17T18:39:08.088Z,1.20
2022-11-17T18:41:35.547Z,0.90
2022-11-17T18:44:02.318Z,1.90
2022-11-17T18:46:32.095Z,1.08
2022-11-17T18:48:59.082Z,1.00
2022-11-17T18:51:27.501Z,0.95
2022-11-17T18:53:54.621Z,1.20
2022-11-17T18:56:22.865Z,1.00
2022-11-17T18:58:49.567Z,1.13
2022-11-17T19:01:16.026Z,1.00
2022-11-17T19:03:43.853Z,1.20
2022-11-17T19:06:11.239Z,0.90
2022-11-17T19:08:38.249Z,0.90
2022-11-17T19:11:06.670Z,0.90
2022-11-17T19:13:34.086Z,0.75
2022-11-17T19:16:06.915Z,0.82
2022-11-17T19:18:33.520Z,1.05
2022-11-17T19:21:19.277Z,1.20
2022-11-17T19:23:51.504Z,0.98
2022-11-17T19:26:19.988Z,0.70
2022-11-17T19:28:46.612Z,0.95
2022-11-17T19:31:14.833Z,1.02
2022-11-17T19:33:41.667Z,0.80
2022-11-17T19:36:09.829Z,0.90
2022-11-17T19:38:38.378Z,0.75
2022-11-17T19:41:05.776Z,0.80
2022-11-17T19:43:33.186Z,0.70
2022-11-17T19:46:00.564Z,0.95
2022-11-17T19:48:27.993Z,0.90
2022-11-17T19:50:56.004Z,1.80
2022-11-17T19:53:22.874Z,0.80
2022-11-17T19:55:49.548Z,0.70
2022-11-17T19:58:17.288Z,1.10
2022-11-17T20:00:45.293Z,1.08
2022-11-17T20:03:15.798Z,0.80
2022-11-17T20:05:42.212Z,1.00
2022-11-17T20:08:09.199Z,1.10
2022-11-17T20:10:35.695Z,0.80
2022-11-17T20:13:02.130Z,1.10
2022-11-17T20:15:34.198Z,1.10
2022-11-17T20:18:01.090Z,0.80
2022-11-17T20:20:27.635Z,1.20
2022-11-17T20:22:53.967Z,1.00
2022-11-17T20:25:20.374Z,0.80
2022-11-17T20:27:46.878Z,0.90
2022-11-17T20:30:15.302Z,0.63
2022-11-17T20:32:42.083Z,0.75
2022-11-17T20:35:08.738Z,1.00
2022-11-17T20:37:35.200Z,0.60
2022-11-17T20:40:01.633Z,0.70
2022-11-17T20:42:28.152Z,0.50
2022-11-17T20:44:54.591Z,0.80
2022-11-17T20:47:22.757Z,0.65
2022-11-17T20:49:49.206Z,0.52
2022-11-17T20:52:15.607Z,0.60
2022-11-17T20:54:43.651Z,0.55
2022-11-17T20:57:10.060Z,0.60
2022-11-17T20:59:36.485Z,0.70
2022-11-17T21:02:02.899Z,0.60
2022-11-17T21:04:29.318Z,0.50
2022-11-17T21:06:55.857Z,0.57
2022-11-17T21:09:22.527Z,0.40
2022-11-17T21:11:57.800Z,0.50
2022-11-17T21:14:26.140Z,0.73
2022-11-17T21:16:53.195Z,0.55
2022-11-17T21:19:19.906Z,0.80
2022-11-17T21:21:46.434Z,0.60
2022-11-17T21:24:13.262Z,0.43
2022-11-17T21:26:39.706Z,0.82
2022-11-17T21:29:07.202Z,0.40
2022-11-17T21:31:34.072Z,0.50
2022-11-17T21:34:02.267Z,0.40
2022-11-17T21:36:29.740Z,0.50
2022-11-17T21:38:56.399Z,0.55
2022-11-17T21:41:24.501Z,0.50
2022-11-17T21:43:51.667Z,0.50
2022-11-17T21:46:22.658Z,0.50
2022-11-17T21:48:49.698Z,0.70
2022-11-17T21:51:26.293Z,0.60
2022-11-17T21:53:56.590Z,0.75
2022-11-17T21:56:26.547Z,0.60
2022-11-17T21:58:53.768Z,0.68
2022-11-17T22:01:20.274Z,0.80
2022-11-17T22:03:46.821Z,0.47
2022-11-17T22:06:14.326Z,0.60
2022-11-17T22:08:42.381Z,0.70
2022-11-17T22:11:10.552Z,0.80
2022-11-17T22:13:37.081Z,0.52
2022-11-17T22:16:08.584Z,1.00
2022-11-17T22:18:35.039Z,0.60
2022-11-17T22:21:01.490Z,0.60
2022-11-17T22:23:28.682Z,0.63
2022-11-17T22:25:56.453Z,0.82
2022-11-17T22:28:23.233Z,1.00
2022-11-17T22:30:50.231Z,0.90
2022-11-17T22:33:17.112Z,1.00
2022-11-17T22:35:45.185Z,0.88
2022-11-17T22:38:12.340Z,0.80
2022-11-17T22:40:39.397Z,0.88
2022-11-17T22:43:09.158Z,0.80
2022-11-17T22:45:39.827Z,1.08
2022-11-17T22:48:06.373Z,0.70
2022-11-17T22:50:33.094Z,0.90
2022-11-17T22:52:59.534Z,0.90
2022-11-17T22:55:26.089Z,0.90
2022-11-17T22:57:52.548Z,0.90
2022-11-17T23:00:19.232Z,0.77
2022-11-17T23:02:45.692Z,0.80
2022-11-17T23:05:12.115Z,0.70
2022-11-17T23:07:38.589Z,0.90
2022-11-17T23:10:05.236Z,0.70
2022-11-17T23:12:31.644Z,0.60
2022-11-17T23:14:58.033Z,0.70
2022-11-17T23:17:24.788Z,0.75
2022-11-17T23:19:51.317Z,0.50
2022-11-17T23:22:17.791Z,0.70
2022-11-17T23:24:44.261Z,0.55
2022-11-17T23:27:10.649Z,0.52
2022-11-17T23:29:37.080Z,0.60
2022-11-17T23:32:03.482Z,0.50
2022-11-17T23:34:29.941Z,0.50
2022-11-17T23:37:00.849Z,0.60
2022-11-17T23:39:29.869Z,0.68
2022-11-17T23:41:56.349Z,0.77
2022-11-17T23:44:22.872Z,1.08
2022-11-17T23:46:49.335Z,0.80
2022-11-17T23:49:15.915Z,0.70
2022-11-17T23:51:42.765Z,1.02
2022-11-17T23:54:11.072Z,0.70
2022-11-17T23:56:37.644Z,0.70
2022-11-17T23:59:04.623Z,0.70
